createdAt,value
2024-02-24T00:00:32.547Z,10.23
2024-02-24T00:02:59.092Z,11.73
2024-02-24T00:05:25.709Z,11.47
2024-02-24T00:07:53.011Z,10.70
2024-02-24T00:10:19.708Z,10.53
2024-02-24T00:12:46.338Z,11.27
2024-02-24T00:15:12.878Z,10.20
2024-02-24T00:17:39.477Z,10.37
2024-02-24T00:20:07.695Z,11.30
2024-02-24T00:22:36.005Z,13.10
2024-02-24T00:25:02.870Z,10.33
2024-02-24T00:27:30.166Z,11.00
2024-02-24T00:29:56.737Z,13.00
2024-02-24T00:32:23.306Z,11.50
2024-02-24T00:34:49.997Z,11.23
2024-02-24T00:37:16.530Z,12.67
2024-02-24T00:39:43.076Z,11.40
2024-02-24T00:42:09.617Z,13.77
2024-02-24T00:44:36.328Z,10.23
2024-02-24T00:47:03.115Z,9.87
2024-02-24T00:49:29.926Z,10.43
2024-02-24T00:51:56.631Z,9.03
2024-02-24T00:54:23.185Z,9.40
2024-02-24T00:56:49.716Z,8.37
2024-02-24T00:59:16.265Z,9.70
2024-02-24T01:01:42.840Z,10.47
2024-02-24T01:04:09.448Z,13.47
2024-02-24T01:06:36.066Z,11.50
2024-02-24T01:09:02.571Z,11.20
2024-02-24T01:11:29.224Z,11.93
2024-02-24T01:13:55.893Z,12.20
2024-02-24T01:16:22.432Z,14.80
2024-02-24T01:18:49.087Z,11.90
2024-02-24T01:21:15.685Z,13.57
2024-02-24T01:23:42.253Z,12.43
2024-02-24T01:26:08.868Z,14.00
2024-02-24T01:28:35.426Z,12.03
2024-02-24T01:31:02.030Z,12.63
2024-02-24T01:33:28.617Z,10.90
2024-02-24T01:35:55.324Z,9.60
2024-02-24T01:38:22.237Z,10.07
2024-02-24T01:40:48.838Z,11.07
2024-02-24T01:43:28.696Z,9.93
2024-02-24T01:45:55.655Z,10.80
2024-02-24T01:48:22.423Z,10.83
2024-02-24T01:50:50.375Z,9.87
2024-02-24T01:53:18.176Z,9.10
2024-02-24T01:55:45.300Z,8.83
2024-02-24T01:58:12.464Z,11.03
2024-02-24T02:00:39.039Z,9.13
2024-02-24T02:03:05.648Z,11.77
2024-02-24T02:05:32.256Z,9.50
2024-02-24T02:07:58.864Z,9.93
2024-02-24T02:10:25.447Z,9.70
2024-02-24T02:12:52.196Z,8.60
2024-02-24T02:15:19.016Z,8.53
2024-02-24T02:17:45.667Z,8.90
2024-02-24T02:20:12.366Z,9.13
2024-02-24T02:22:38.891Z,9.60
2024-02-24T02:25:05.671Z,8.27
2024-02-24T02:27:33.635Z,8.93
2024-02-24T02:30:00.179Z,8.50
2024-02-24T02:32:26.836Z,8.87
2024-02-24T02:34:53.394Z,10.90
2024-02-24T02:37:19.932Z,7.10
2024-02-24T02:39:46.557Z,8.07
2024-02-24T02:42:13.126Z,9.97
2024-02-24T02:44:39.710Z,8.70
2024-02-24T02:47:14.663Z,9.20
2024-02-24T02:49:46.030Z,7.97
2024-02-24T02:52:12.737Z,8.40
2024-02-24T02:54:39.381Z,11.77
2024-02-24T02:57:06.013Z,8.07
2024-02-24T02:59:36.131Z,9.70
2024-02-24T03:02:02.797Z,7.50
2024-02-24T03:04:29.301Z,7.73
2024-02-24T03:06:55.849Z,7.17
2024-02-24T03:09:22.379Z,6.50
2024-02-24T03:11:49.066Z,6.97
2024-02-24T03:14:15.803Z,10.40
2024-02-24T03:16:42.539Z,7.43
2024-02-24T03:19:09.788Z,7.87
2024-02-24T03:21:36.392Z,7.17
2024-02-24T03:24:03.152Z,8.33
2024-02-24T03:26:30.211Z,7.87
2024-02-24T03:28:56.772Z,7.83
2024-02-24T03:31:23.357Z,7.20
2024-02-24T03:33:50.097Z,9.13
2024-02-24T03:36:19.082Z,9.33
2024-02-24T03:38:45.810Z,7.33
2024-02-24T03:41:12.883Z,11.43
2024-02-24T03:43:39.687Z,9.63
2024-02-24T03:46:07.505Z,10.93
2024-02-24T03:48:34.654Z,12.80
2024-02-24T03:51:01.275Z,9.83
2024-02-24T03:53:28.339Z,12.40
2024-02-24T03:55:55.150Z,12.30
2024-02-24T03:58:21.681Z,13.53
2024-02-24T04:00:49.034Z,10.30
2024-02-24T04:03:15.606Z,11.67
2024-02-24T04:05:42.222Z,10.43
2024-02-24T04:08:08.815Z,10.63
2024-02-24T04:10:35.535Z,10.23
2024-02-24T04:13:02.148Z,12.80
2024-02-24T04:15:28.705Z,12.43
2024-02-24T04:17:55.321Z,9.23
2024-02-24T04:20:22.523Z,12.33
2024-02-24T04:22:49.029Z,11.00
2024-02-24T04:25:15.521Z,10.10
2024-02-24T04:27:42.094Z,9.73
2024-02-24T04:30:08.782Z,15.90
2024-02-24T04:32:35.369Z,9.77
2024-02-24T04:35:01.932Z,10.03
2024-02-24T04:37:28.507Z,9.53
2024-02-24T04:39:55.085Z,12.43
2024-02-24T04:42:21.660Z,10.23
2024-02-24T04:44:48.276Z,10.53
2024-02-24T04:47:14.884Z,10.50
2024-02-24T04:49:41.457Z,9.67
2024-02-24T04:52:08.010Z,9.77
2024-02-24T04:54:34.567Z,8.63
2024-02-24T04:57:01.042Z,10.17
2024-02-24T04:59:27.636Z,9.53
2024-02-24T05:01:54.210Z,9.83
2024-02-24T05:04:20.814Z,8.63
2024-02-24T05:06:47.352Z,9.70
2024-02-24T05:09:14.054Z,9.10
2024-02-24T05:11:41.796Z,9.73
2024-02-24T05:14:08.478Z,9.67
2024-02-24T05:16:35.113Z,5.47
2024-02-24T05:19:01.698Z,10.07
2024-02-24T05:21:28.247Z,12.00
2024-02-24T05:23:54.798Z,8.40
2024-02-24T05:26:28.437Z,10.63
2024-02-24T05:28:58.040Z,10.50
2024-02-24T05:31:24.813Z,11.40
2024-02-24T05:33:52.600Z,10.00
2024-02-24T05:36:19.348Z,9.40
2024-02-24T05:38:46.057Z,13.23
2024-02-24T05:41:12.739Z,8.70
2024-02-24T05:43:39.652Z,10.10
2024-02-24T05:46:06.446Z,9.40
2024-02-24T05:48:38.745Z,6.20
2024-02-24T05:51:10.462Z,4.10
2024-02-24T05:53:37.756Z,5.03
2024-02-24T05:56:04.928Z,4.40
2024-02-24T05:58:31.751Z,7.00
2024-02-24T06:00:58.349Z,9.47
2024-02-24T06:03:24.989Z,4.93
2024-02-24T06:05:51.632Z,5.90
2024-02-24T06:08:18.284Z,5.80
2024-02-24T06:10:44.837Z,6.53
2024-02-24T06:13:11.386Z,5.20
2024-02-24T06:15:37.931Z,5.40
2024-02-24T06:18:04.929Z,5.87
2024-02-24T06:20:34.266Z,5.10
2024-02-24T06:23:01.055Z,5.30
2024-02-24T06:25:27.586Z,5.97
2024-02-24T06:27:54.112Z,5.67
2024-02-24T06:30:21.322Z,4.90
2024-02-24T06:32:48.262Z,5.93
2024-02-24T06:35:14.977Z,7.20
2024-02-24T06:37:41.498Z,7.53
2024-02-24T06:40:11.423Z,6.43
2024-02-24T06:42:38.835Z,6.23
2024-02-24T06:45:05.879Z,7.83
2024-02-24T06:47:32.497Z,7.23
2024-02-24T06:49:59.323Z,7.03
2024-02-24T06:52:25.958Z,8.20
2024-02-24T06:54:52.570Z,7.33
2024-02-24T06:57:19.193Z,6.90
2024-02-24T06:59:47.355Z,5.67
2024-02-24T07:02:14.837Z,6.23
2024-02-24T07:04:44.336Z,6.87
2024-02-24T07:07:11.290Z,7.03
2024-02-24T07:09:38.005Z,7.10
2024-02-24T07:12:05.168Z,5.67
2024-02-24T07:14:31.946Z,11.93
2024-02-24T07:16:58.554Z,9.63
2024-02-24T07:19:25.222Z,5.40
2024-02-24T07:21:51.734Z,5.03
2024-02-24T07:24:18.277Z,12.67
2024-02-24T07:26:50.625Z,6.47
2024-02-24T07:29:17.785Z,4.40
2024-02-24T07:31:44.358Z,4.17
2024-02-24T07:34:11.050Z,4.70
2024-02-24T07:36:37.677Z,4.90
2024-02-24T07:39:04.251Z,8.27
2024-02-24T07:41:30.893Z,3.50
2024-02-24T07:43:57.452Z,6.07
2024-02-24T07:46:25.039Z,4.47
2024-02-24T07:48:51.589Z,4.67
2024-02-24T07:51:18.091Z,4.67
2024-02-24T07:53:44.703Z,5.63
2024-02-24T07:56:11.295Z,4.07
2024-02-24T07:58:37.893Z,4.97
2024-02-24T08:01:04.680Z,4.53
2024-02-24T08:03:31.826Z,12.97
2024-02-24T08:05:58.443Z,18.63
2024-02-24T08:08:25.037Z,7.03
2024-02-24T08:10:51.572Z,5.40
2024-02-24T08:13:18.151Z,5.03
2024-02-24T08:15:44.684Z,4.70
2024-02-24T08:18:11.444Z,4.90
2024-02-24T08:20:38.056Z,4.07
2024-02-24T08:23:04.690Z,3.90
2024-02-24T08:25:31.257Z,4.17
2024-02-24T08:27:57.905Z,3.57
2024-02-24T08:30:24.443Z,4.67
2024-02-24T08:32:51.034Z,3.60
2024-02-24T08:35:17.849Z,4.00
2024-02-24T08:37:44.447Z,5.00
2024-02-24T08:40:12.247Z,4.43
2024-02-24T08:42:39.199Z,3.20
2024-02-24T08:45:06.273Z,3.93
2024-02-24T08:47:32.934Z,4.17
2024-02-24T08:49:59.576Z,3.80
2024-02-24T08:52:35.210Z,3.87
2024-02-24T08:55:05.603Z,4.93
2024-02-24T08:57:32.149Z,3.50
2024-02-24T08:59:58.716Z,2.63
2024-02-24T09:02:25.400Z,3.00
2024-02-24T09:04:51.955Z,2.97
2024-02-24T09:07:18.645Z,3.50
2024-02-24T09:09:45.268Z,6.50
2024-02-24T09:12:11.764Z,3.73
2024-02-24T09:14:38.342Z,3.23
2024-02-24T09:17:05.133Z,3.70
2024-02-24T09:19:31.694Z,3.63
2024-02-24T09:21:58.266Z,4.20
2024-02-24T09:24:24.839Z,3.50
2024-02-24T09:26:51.505Z,3.60
2024-02-24T09:29:18.147Z,6.60
2024-02-24T09:31:44.777Z,3.13
2024-02-24T09:34:11.769Z,2.90
2024-02-24T09:36:39.150Z,2.70
2024-02-24T09:39:05.744Z,3.10
2024-02-24T09:41:32.274Z,2.37
2024-02-24T09:43:58.873Z,2.17
2024-02-24T09:46:25.589Z,2.40
2024-02-24T09:48:52.635Z,3.90
2024-02-24T09:51:19.308Z,2.10
2024-02-24T09:53:46.068Z,2.43
2024-02-24T09:56:14.753Z,1.67
2024-02-24T09:58:41.836Z,1.50
2024-02-24T10:01:08.425Z,2.80
2024-02-24T10:03:35.497Z,1.67
2024-02-24T10:06:02.203Z,8.63
2024-02-24T10:08:28.880Z,2.00
2024-02-24T10:10:56.344Z,1.47
2024-02-24T10:13:22.836Z,1.60
2024-02-24T10:15:49.365Z,1.70
2024-02-24T10:18:16.021Z,1.00
2024-02-24T10:20:42.744Z,2.73
2024-02-24T10:23:12.520Z,3.13
2024-02-24T10:25:39.122Z,2.90
2024-02-24T10:28:06.696Z,1.10
2024-02-24T10:30:33.666Z,1.83
2024-02-24T10:33:01.072Z,1.53
2024-02-24T10:35:28.066Z,1.97
2024-02-24T10:38:10.741Z,1.33
2024-02-24T10:40:43.622Z,2.60
2024-02-24T10:43:10.854Z,2.43
2024-02-24T10:45:37.469Z,2.80
2024-02-24T10:48:04.419Z,1.17
2024-02-24T10:50:31.213Z,1.70
2024-02-24T10:52:59.572Z,1.53
2024-02-24T10:55:27.101Z,2.97
2024-02-24T10:57:53.723Z,1.43
2024-02-24T11:00:29.836Z,1.40
2024-02-24T11:02:58.418Z,1.70
2024-02-24T11:05:25.064Z,2.40
2024-02-24T11:07:51.682Z,1.50
2024-02-24T11:10:22.305Z,1.47
2024-02-24T11:12:52.256Z,0.73
2024-02-24T11:15:19.758Z,3.50
2024-02-24T11:17:53.721Z,1.67
2024-02-24T11:20:35.659Z,2.20
2024-02-24T11:23:27.909Z,1.20
2024-02-24T11:26:12.816Z,2.40
2024-02-24T11:28:40.784Z,1.33
2024-02-24T11:31:07.767Z,1.20
2024-02-24T11:33:35.768Z,1.20
2024-02-24T11:36:02.688Z,4.53
2024-02-24T11:38:29.257Z,8.03
2024-02-24T11:40:56.151Z,1.07
2024-02-24T11:43:22.675Z,1.43
2024-02-24T11:45:50.848Z,4.50
2024-02-24T11:48:18.438Z,2.87
2024-02-24T11:50:45.545Z,2.63
2024-02-24T11:53:13.883Z,1.47
2024-02-24T11:55:41.445Z,1.20
2024-02-24T11:58:08.274Z,2.47
2024-02-24T12:00:36.319Z,3.87
2024-02-24T12:03:10.177Z,1.57
2024-02-24T12:05:36.816Z,2.27
2024-02-24T12:08:04.940Z,2.57
2024-02-24T12:10:41.057Z,3.03
2024-02-24T12:13:08.657Z,1.63
2024-02-24T12:15:35.943Z,3.30
2024-02-24T12:18:05.788Z,2.60
2024-02-24T12:20:34.600Z,1.77
2024-02-24T12:23:05.136Z,2.33
2024-02-24T12:25:31.856Z,1.50
2024-02-24T12:27:58.563Z,3.60
2024-02-24T12:30:25.305Z,2.63
2024-02-24T12:32:52.009Z,2.50
2024-02-24T12:35:22.212Z,3.07
2024-02-24T12:37:48.774Z,1.97
2024-02-24T12:40:31.528Z,3.43
2024-02-24T12:42:59.191Z,4.50
2024-02-24T12:45:26.034Z,3.40
2024-02-24T12:47:53.171Z,3.00
2024-02-24T12:50:21.310Z,2.23
2024-02-24T12:52:48.516Z,2.33
2024-02-24T12:55:15.628Z,2.83
2024-02-24T12:57:42.508Z,4.50
2024-02-24T13:00:10.298Z,2.53
2024-02-24T13:02:37.269Z,2.23
2024-02-24T13:05:05.239Z,3.37
2024-02-24T13:07:32.052Z,2.23
2024-02-24T13:09:58.590Z,2.40
2024-02-24T13:12:25.482Z,3.37
2024-02-24T13:14:52.222Z,3.47
2024-02-24T13:17:18.850Z,5.17
2024-02-24T13:19:45.525Z,2.00
2024-02-24T13:22:12.099Z,1.70
2024-02-24T13:24:38.596Z,4.27
2024-02-24T13:27:05.125Z,4.43
2024-02-24T13:29:31.684Z,2.30
2024-02-24T13:31:58.582Z,1.67
2024-02-24T13:34:25.090Z,4.17
2024-02-24T13:36:51.640Z,2.20
2024-02-24T13:39:18.143Z,5.63
2024-02-24T13:41:44.690Z,1.83
2024-02-24T13:44:11.248Z,2.53
2024-02-24T13:46:37.719Z,1.73
2024-02-24T13:49:05.694Z,5.40
2024-02-24T13:51:32.703Z,1.67
2024-02-24T13:53:59.710Z,3.13
2024-02-24T13:56:26.649Z,4.03
2024-02-24T13:58:53.825Z,7.47
2024-02-24T14:01:20.404Z,3.90
2024-02-24T14:03:47.171Z,3.00
2024-02-24T14:06:13.980Z,2.57
2024-02-24T14:08:44.525Z,4.63
2024-02-24T14:11:11.171Z,1.80
2024-02-24T14:13:38.344Z,7.60
2024-02-24T14:16:05.187Z,2.77
2024-02-24T14:18:31.780Z,2.23
2024-02-24T14:20:58.330Z,2.10
2024-02-24T14:23:24.887Z,2.67
2024-02-24T14:25:51.403Z,4.07
2024-02-24T14:28:17.968Z,4.23
2024-02-24T14:30:44.828Z,9.73
2024-02-24T14:33:11.460Z,7.47
2024-02-24T14:35:38.318Z,14.90
2024-02-24T14:38:05.707Z,10.17
2024-02-24T14:40:32.263Z,4.63
2024-02-24T14:42:58.724Z,3.53
2024-02-24T14:45:25.414Z,4.60
2024-02-24T14:47:52.478Z,3.73
2024-02-24T14:50:19.459Z,2.00
2024-02-24T14:52:45.942Z,2.43
2024-02-24T14:55:12.569Z,3.80
2024-02-24T14:57:39.321Z,1.40
2024-02-24T15:00:06.836Z,2.50
2024-02-24T15:02:45.548Z,3.73
2024-02-24T15:05:19.348Z,2.30
2024-02-24T15:07:45.888Z,2.17
2024-02-24T15:10:12.395Z,2.83
2024-02-24T15:12:38.854Z,1.40
2024-02-24T15:15:05.781Z,2.17
2024-02-24T15:17:32.643Z,3.70
2024-02-24T15:20:02.328Z,2.17
2024-02-24T15:22:30.009Z,2.60
2024-02-24T15:24:56.540Z,1.90
2024-02-24T15:27:23.047Z,1.60
2024-02-24T15:29:49.675Z,3.73
2024-02-24T15:32:16.258Z,5.87
2024-02-24T15:34:42.849Z,2.10
2024-02-24T15:37:09.428Z,2.67
2024-02-24T15:39:35.992Z,2.93
2024-02-24T15:42:02.584Z,3.53
2024-02-24T15:44:29.173Z,2.90
2024-02-24T15:46:55.757Z,2.30
2024-02-24T15:49:22.339Z,2.10
2024-02-24T15:51:48.925Z,2.67
2024-02-24T15:54:15.405Z,2.30
2024-02-24T15:56:42.053Z,7.50
2024-02-24T15:59:08.597Z,4.63
2024-02-24T16:01:35.097Z,1.67
2024-02-24T16:04:01.655Z,3.63
2024-02-24T16:06:28.311Z,4.33
2024-02-24T16:08:54.997Z,2.87
2024-02-24T16:11:22.013Z,2.97
2024-02-24T16:13:48.918Z,1.73
2024-02-24T16:16:17.010Z,4.07
2024-02-24T16:18:43.739Z,4.07
2024-02-24T16:21:10.650Z,3.07
2024-02-24T16:23:37.279Z,3.40
2024-02-24T16:26:04.048Z,4.97
2024-02-24T16:28:30.581Z,5.13
2024-02-24T16:30:57.976Z,4.43
2024-02-24T16:33:24.733Z,6.30
2024-02-24T16:35:51.409Z,4.30
2024-02-24T16:38:18.050Z,3.53
2024-02-24T16:40:44.667Z,2.63
2024-02-24T16:43:11.172Z,3.83
2024-02-24T16:45:37.700Z,8.20
2024-02-24T16:48:04.655Z,3.40
2024-02-24T16:50:31.245Z,5.50
2024-02-24T16:52:57.744Z,6.33
2024-02-24T16:55:24.365Z,2.57
2024-02-24T16:57:50.915Z,3.57
2024-02-24T17:00:17.720Z,3.47
2024-02-24T17:02:44.320Z,9.57
2024-02-24T17:05:10.966Z,6.67
2024-02-24T17:07:38.442Z,6.43
2024-02-24T17:10:05.474Z,4.07
2024-02-24T17:12:32.319Z,5.10
2024-02-24T17:14:59.042Z,5.77
2024-02-24T17:17:25.735Z,7.20
2024-02-24T17:19:52.307Z,4.73
2024-02-24T17:22:18.962Z,4.60
2024-02-24T17:24:45.513Z,3.07
2024-02-24T17:27:12.008Z,3.57
2024-02-24T17:29:38.555Z,5.07
2024-02-24T17:32:05.519Z,4.10
2024-02-24T17:34:32.266Z,4.60
2024-02-24T17:36:58.795Z,4.83
2024-02-24T17:39:25.284Z,5.97
2024-02-24T17:41:51.821Z,4.53
2024-02-24T17:44:18.334Z,4.83
2024-02-24T17:46:44.886Z,4.70
2024-02-24T17:49:11.568Z,6.73
2024-02-24T17:51:38.205Z,7.60
2024-02-24T17:54:04.852Z,4.30
2024-02-24T17:56:31.411Z,8.80
2024-02-24T17:58:57.983Z,5.47
2024-02-24T18:01:24.537Z,6.90
2024-02-24T18:03:51.048Z,7.43
2024-02-24T18:06:17.660Z,6.50
2024-02-24T18:08:44.369Z,5.90
2024-02-24T18:11:11.085Z,7.33
2024-02-24T18:13:38.172Z,5.40
2024-02-24T18:16:04.899Z,6.63
2024-02-24T18:18:31.576Z,5.00
2024-02-24T18:20:58.243Z,6.33
2024-02-24T18:23:24.884Z,7.97
2024-02-24T18:25:53.739Z,4.53
2024-02-24T18:28:20.252Z,6.03
2024-02-24T18:30:46.775Z,5.23
2024-02-24T18:33:13.444Z,8.17
2024-02-24T18:35:40.033Z,6.13
2024-02-24T18:38:06.599Z,6.23
2024-02-24T18:40:33.096Z,6.73
2024-02-24T18:42:59.636Z,11.53
2024-02-24T18:45:26.168Z,6.10
2024-02-24T18:47:52.838Z,6.90
2024-02-24T18:50:19.465Z,5.60
2024-02-24T18:52:46.022Z,6.00
2024-02-24T18:55:12.531Z,5.23
2024-02-24T18:57:39.051Z,7.73
2024-02-24T19:00:07.456Z,4.57
2024-02-24T19:02:34.073Z,7.40
2024-02-24T19:05:00.850Z,6.00
2024-02-24T19:07:27.456Z,11.50
2024-02-24T19:09:53.972Z,4.87
2024-02-24T19:12:20.529Z,6.23
2024-02-24T19:14:52.370Z,8.53
2024-02-24T19:17:23.663Z,11.27
2024-02-24T19:19:50.590Z,15.23
2024-02-24T19:22:17.276Z,26.77
2024-02-24T19:24:44.018Z,29.80
2024-02-24T19:27:10.543Z,19.57
2024-02-24T19:29:37.080Z,17.90
2024-02-24T19:32:03.764Z,11.30
2024-02-24T19:34:30.361Z,19.40
2024-02-24T19:36:56.932Z,17.20
2024-02-24T19:39:23.557Z,15.50
2024-02-24T19:41:50.221Z,13.57
2024-02-24T19:44:16.834Z,12.73
2024-02-24T19:46:43.466Z,15.60
2024-02-24T19:49:10.422Z,12.53
2024-02-24T19:51:37.104Z,12.23
2024-02-24T19:54:03.918Z,12.07
2024-02-24T19:56:30.492Z,16.50
2024-02-24T19:58:57.026Z,10.77
2024-02-24T20:01:23.544Z,11.70
2024-02-24T20:03:50.079Z,12.50
2024-02-24T20:06:16.819Z,12.80
2024-02-24T20:08:43.479Z,11.53
2024-02-24T20:11:10.091Z,12.30
2024-02-24T20:13:36.698Z,11.87
2024-02-24T20:16:03.799Z,7.93
2024-02-24T20:18:30.404Z,9.97
2024-02-24T20:20:57.329Z,8.97
2024-02-24T20:23:24.247Z,13.47
2024-02-24T20:25:50.876Z,17.07
2024-02-24T20:28:17.587Z,15.13
2024-02-24T20:30:44.171Z,13.97
2024-02-24T20:33:10.792Z,11.70
2024-02-24T20:35:37.463Z,11.07
2024-02-24T20:38:04.214Z,7.30
2024-02-24T20:40:30.752Z,7.57
2024-02-24T20:42:57.298Z,8.37
2024-02-24T20:45:23.782Z,10.50
2024-02-24T20:47:50.427Z,9.83
2024-02-24T20:50:17.093Z,9.23
2024-02-24T20:52:43.578Z,8.40
2024-02-24T20:55:10.095Z,8.40
2024-02-24T20:57:36.620Z,8.10
2024-02-24T21:00:03.381Z,7.30
2024-02-24T21:02:29.986Z,9.40
2024-02-24T21:04:56.554Z,6.80
2024-02-24T21:07:23.096Z,16.37
2024-02-24T21:09:49.568Z,18.20
2024-02-24T21:12:16.068Z,14.20
2024-02-24T21:14:42.788Z,17.43
2024-02-24T21:17:09.342Z,9.87
2024-02-24T21:19:35.955Z,7.70
2024-02-24T21:22:02.500Z,7.20
2024-02-24T21:24:29.011Z,8.60
2024-02-24T21:26:55.578Z,6.73
2024-02-24T21:29:22.166Z,7.27
2024-02-24T21:31:51.687Z,9.20
2024-02-24T21:34:20.370Z,9.13
2024-02-24T21:36:46.922Z,9.20
2024-02-24T21:39:13.503Z,7.47
2024-02-24T21:41:40.027Z,10.63
2024-02-24T21:44:06.895Z,13.20
2024-02-24T21:46:33.743Z,12.70
2024-02-24T21:49:00.556Z,9.00
2024-02-24T21:51:27.364Z,7.90
2024-02-24T21:53:53.957Z,9.60
2024-02-24T21:56:20.568Z,7.50
2024-02-24T21:58:47.047Z,7.97
2024-02-24T22:01:13.603Z,6.10
2024-02-24T22:03:40.189Z,10.67
2024-02-24T22:06:06.852Z,12.00
2024-02-24T22:08:34.964Z,12.97
2024-02-24T22:11:02.958Z,12.73
2024-02-24T22:13:29.507Z,12.17
2024-02-24T22:15:56.037Z,14.07
2024-02-24T22:18:22.657Z,14.33
2024-02-24T22:20:49.240Z,9.30
2024-02-24T22:23:16.072Z,9.20
2024-02-24T22:25:42.584Z,11.03
2024-02-24T22:28:09.114Z,7.77
2024-02-24T22:30:35.699Z,10.60
2024-02-24T22:33:02.374Z,8.10
2024-02-24T22:35:28.989Z,8.87
2024-02-24T22:37:55.581Z,9.70
2024-02-24T22:40:22.082Z,9.90
2024-02-24T22:42:48.604Z,6.27
2024-02-24T22:45:15.165Z,11.37
2024-02-24T22:47:44.277Z,14.03
2024-02-24T22:50:12.583Z,10.13
2024-02-24T22:52:39.091Z,7.80
2024-02-24T22:55:05.764Z,9.70
2024-02-24T22:57:32.291Z,11.47
2024-02-24T22:59:58.871Z,11.30
2024-02-24T23:02:25.493Z,15.47
2024-02-24T23:04:52.390Z,12.63
2024-02-24T23:07:19.076Z,11.67
2024-02-24T23:09:45.740Z,8.70
2024-02-24T23:12:12.314Z,6.27
2024-02-24T23:14:39.005Z,8.97
2024-02-24T23:17:05.537Z,7.57
2024-02-24T23:19:32.066Z,7.67
2024-02-24T23:21:58.691Z,7.60
2024-02-24T23:24:25.202Z,8.90
2024-02-24T23:26:51.758Z,7.73
2024-02-24T23:29:18.291Z,6.37
2024-02-24T23:31:44.815Z,4.70
2024-02-24T23:34:11.584Z,6.67
2024-02-24T23:36:38.194Z,5.57
2024-02-24T23:39:04.705Z,5.73
2024-02-24T23:41:31.278Z,6.00
2024-02-24T23:43:57.818Z,7.33
2024-02-24T23:46:24.349Z,9.00
2024-02-24T23:48:51.027Z,6.23
2024-02-24T23:51:17.701Z,6.77
2024-02-24T23:53:44.433Z,7.40
2024-02-24T23:56:20.351Z,4.67
2024-02-24T23:58:46.902Z,6.00
